Etusivu
METAR-TAF:

METAR-TAF

Lentoasemat :

Ludington, Michigan, Yhdysvallat

Leveyspiiri: 43-58N, Pituuspiiri: 086-24W, korkeus merenpinnasta: 197 m

Tämänhetkinen sää

Tämä raportti tehtiin 11 minuuttia sitten, kello 14.16 UTC
Tuuli 5 kn lounaasta
Lämpötila 22°C
Kosteus 94%
Ilmanpaine 1012 hPa
Näkyvyys: 11.3 km
Hajanaisia pilviä 1500 ft:n korkeudessa
Hajonneita pilviä 5000 ft:n korkeudessa
Pilvistä 8000 ft:n korkeudessa
heikkoa sadetta

METAR: KLDM 181416Z AUTO 23005KT 7SM -RA SCT015 BKN050 OVC080 22/21 A2987 RMK AO2 T02210210

Aika: 10:27 (14:27 UTC)


TAF: puuttuu

Säähavainnot ja -ennusteet yli 4000 lentoasemalta (METAR- ja TAF-raportit).

Käytössä olevat sääasemat on merkitty karttaan keltaisilla ja punaisilla pisteillä.

Aseta hiiri pisteen päälle nähdäksesi sääaseman nimen.

Klikkaa sitten nähdäksesi säähavainnot ja -ennusteet.

Kartan vaihtaminen: klikkaa mustalla rastilla varustettuja vihreitä pisteitä, niin voit zoomata sisään; viivalla varustettua vihreää pistettä, niin voit zoomata ulos tai vihreitä nuolia, niin pääset viereisille kartoille.


METAR-TAF: